Crane, TX (79731)

9:41 AM CST on January 18, 2017 (GMT -0600)
McCamey Middle School | | Change Station

Elev 2438 ft 31.13 °N, 102.22 °W | Updated 1 minute ago

Overcast
Overcast
45.3 °F
Feels Like 45 °F
N
0.0
Wind Variable Wind from WNW
Gusts 0.0 mph

Today
High -- | Low -- °F
--% Chance of Precip.
Yesterday
High -- | Low -- °F
Precip. -- in
Pressure 30.11 in
Visibility 4.0 miles
Clouds Overcast 1900 ft
Windchill 45 °F
Dew Point 45 °F
Humidity 97%
Rainfall 0.00 in
Snow Depth Not available.
7:48 AM 6:12 PM
Waning Gibbous, 62% visible
METAR KODO 181453Z AUTO 24005KT 4SM BR OVC019 07/05 A3014 RMK AO2 SLP194 T00670050 51002
Pressure 30.11 in
Visibility 4.0 miles
Clouds Overcast 1900 ft
Windchill 45 °F
Dew Point 45 °F
Humidity 97%
Rainfall 0.00 in
Snow Depth Not available.
7:48 AM 6:12 PM
Waning Gibbous, 62% visible
METAR KODO 181453Z AUTO 24005KT 4SM BR OVC019 07/05 A3014 RMK AO2 SLP194 T00670050 51002

Get Your Daily Forecast Email!

Thanks for signing up!

Be on the lookout for a verification email in your inbox.

You'll start receiving the daily forecast at 8 AM.

×

10-Day Weather Forecast

Almanac

Astronomy

Jan. 18, 2017 Rise Set
Actual Time
Civil Twilight
Nautical Twilight
Astronomical Twilight
Moon
Length of Visible Light
Length of Day
Tomorrow will be .
, % of the Moon is Illuminated

Today's Extremes

State Highs State Lows

Community

WunderPhotos

Upload Photos

1,962,540 photos uploaded!

WunderBlog® & News

Nearby

Air Quality

  Air Quality AQ Index Pollutant
Not available.

Snow Depth

Station Depth Elevation

Earthquake Activity

City Distance Mag. Time & Date
Minimum magnitude displayed is 2.5.

Coastal Water Temperatures

Place Temperature

Stations

Nearby Weather Stations

Station Location Temp. Windchill Dew Point Humidity Wind Precip. Elev Updated Type
                   

Watches & Warnings

There are currently no watches in effect.